createdAt,value
2018-05-21T00:00:02.304Z,85.94
2018-05-21T00:01:02.293Z,86.52
2018-05-21T00:02:02.290Z,86.33
2018-05-21T00:03:02.282Z,86.90
2018-05-21T00:04:02.280Z,86.90
2018-05-21T00:05:02.278Z,87.43
2018-05-21T00:06:02.276Z,87.24
2018-05-21T00:07:02.277Z,87.05
2018-05-21T00:08:02.273Z,88.05
2018-05-21T00:09:02.270Z,87.82
2018-05-21T00:10:02.267Z,87.43
2018-05-21T00:11:02.258Z,87.53
2018-05-21T00:12:02.257Z,88.10
2018-05-21T00:13:02.252Z,87.62
2018-05-21T00:14:02.249Z,87.82
2018-05-21T00:15:02.251Z,87.82
2018-05-21T00:16:02.249Z,88.39
2018-05-21T00:17:02.240Z,88.20
2018-05-21T00:18:02.237Z,88.10
2018-05-21T00:19:02.238Z,87.82
2018-05-21T00:20:02.236Z,87.62
2018-05-21T00:21:02.235Z,88.62
2018-05-21T00:22:02.230Z,88.29
2018-05-21T00:23:02.221Z,88.10
2018-05-21T00:24:02.218Z,87.53
2018-05-21T00:25:02.219Z,88.29
2018-05-21T00:26:02.222Z,88.77
2018-05-21T00:27:02.285Z,88.58
2018-05-21T00:28:02.210Z,88.48
2018-05-21T00:29:02.206Z,88.58
2018-05-21T00:30:02.204Z,88.39
2018-05-21T00:31:02.201Z,88.87
2018-05-21T00:32:02.192Z,88.68
2018-05-21T00:33:02.193Z,88.96
2018-05-21T00:34:02.190Z,89.15
2018-05-21T00:35:02.183Z,88.87
2018-05-21T00:36:02.179Z,88.68
2018-05-21T00:37:02.176Z,88.96
2018-05-21T00:38:02.172Z,89.06
2018-05-21T00:39:02.174Z,88.87
2018-05-21T00:40:02.171Z,88.96
2018-05-21T00:41:02.167Z,89.15
2018-05-21T00:42:02.164Z,88.87
2018-05-21T00:43:02.161Z,89.25
2018-05-21T00:44:02.151Z,89.06
2018-05-21T00:45:02.148Z,89.25
2018-05-21T00:46:02.145Z,89.15
2018-05-21T00:47:02.145Z,89.15
2018-05-21T00:48:02.143Z,89.11
2018-05-21T00:49:02.136Z,89.11
2018-05-21T00:50:02.131Z,89.30
2018-05-21T00:51:02.132Z,89.63
2018-05-21T00:52:02.129Z,89.49
2018-05-21T00:53:02.127Z,89.68
2018-05-21T00:54:02.125Z,89.68
2018-05-21T00:55:02.118Z,89.53
2018-05-21T00:56:02.115Z,89.49
2018-05-21T00:57:02.123Z,89.68
2018-05-21T00:58:02.106Z,90.25
2018-05-21T00:59:02.103Z,89.78
2018-05-21T01:00:02.101Z,89.78
2018-05-21T01:01:02.098Z,90.25
2018-05-21T01:02:02.094Z,90.06
2018-05-21T01:03:02.093Z,90.06
2018-05-21T01:04:02.084Z,90.06
2018-05-21T01:05:02.084Z,90.25
2018-05-21T01:06:02.081Z,90.54
2018-05-21T01:07:02.071Z,90.64
2018-05-21T01:08:02.069Z,90.73
2018-05-21T01:09:02.064Z,90.83
2018-05-21T01:10:02.065Z,91.21
2018-05-21T01:11:02.060Z,91.02
2018-05-21T01:12:02.064Z,91.21
2018-05-21T01:13:02.053Z,91.21
2018-05-21T01:14:02.050Z,91.11
2018-05-21T01:15:02.042Z,91.50
2018-05-21T01:16:02.038Z,91.40
2018-05-21T01:17:02.035Z,91.59
2018-05-21T01:18:02.030Z,91.30
2018-05-21T01:19:02.030Z,91.59
2018-05-21T01:20:02.029Z,91.78
2018-05-21T01:21:02.019Z,91.78
2018-05-21T01:22:02.015Z,91.40
2018-05-21T01:23:02.015Z,91.40
2018-05-21T01:24:02.013Z,91.50
2018-05-21T01:25:02.009Z,91.21
2018-05-21T01:26:02.004Z,91.59
2018-05-21T01:27:01.999Z,92.07
2018-05-21T01:28:01.991Z,91.26
2018-05-21T01:29:01.989Z,92.26
2018-05-21T01:30:01.985Z,91.97
2018-05-21T01:31:01.986Z,91.97
2018-05-21T01:32:01.981Z,91.97
2018-05-21T01:33:01.978Z,92.07
2018-05-21T01:34:01.974Z,91.26
2018-05-21T01:35:01.964Z,91.50
2018-05-21T01:36:01.963Z,91.36
2018-05-21T01:37:01.966Z,91.26
2018-05-21T01:38:01.958Z,91.55
2018-05-21T01:39:01.948Z,91.83
2018-05-21T01:40:01.953Z,91.78
2018-05-21T01:41:01.941Z,92.02
2018-05-21T01:42:01.938Z,91.93
2018-05-21T01:43:01.937Z,91.74
2018-05-21T01:44:01.934Z,91.93
2018-05-21T01:45:01.930Z,91.26
2018-05-21T01:46:01.926Z,91.64
2018-05-21T01:47:01.918Z,91.45
2018-05-21T01:48:01.913Z,91.26
2018-05-21T01:49:01.911Z,91.55
2018-05-21T01:50:01.906Z,92.02
2018-05-21T01:51:01.907Z,91.93
2018-05-21T01:52:01.903Z,92.02
2018-05-21T01:53:01.895Z,92.21
2018-05-21T01:54:01.891Z,91.64
2018-05-21T01:55:01.891Z,92.60
2018-05-21T01:56:01.888Z,92.41
2018-05-21T01:57:01.884Z,92.50
2018-05-21T01:58:01.879Z,92.31
2018-05-21T01:59:01.869Z,92.60
2018-05-21T02:00:01.870Z,92.88
2018-05-21T02:01:01.865Z,93.07
2018-05-21T02:02:01.858Z,92.31
2018-05-21T02:03:01.859Z,92.31
2018-05-21T02:04:01.858Z,91.93
2018-05-21T02:05:01.850Z,92.02
2018-05-21T02:06:01.846Z,92.41
2018-05-21T02:07:01.840Z,92.31
2018-05-21T02:08:01.833Z,92.41
2018-05-21T02:09:01.834Z,92.50
2018-05-21T02:10:01.835Z,92.21
2018-05-21T02:11:01.821Z,92.02
2018-05-21T02:12:01.818Z,92.41
2018-05-21T02:13:01.814Z,92.31
2018-05-21T02:14:01.809Z,92.12
2018-05-21T02:15:01.812Z,92.41
2018-05-21T02:16:01.805Z,92.41
2018-05-21T02:17:01.802Z,92.21
2018-05-21T02:18:01.798Z,92.31
2018-05-21T02:19:01.789Z,92.41
2018-05-21T02:20:01.796Z,92.31
2018-05-21T02:21:01.784Z,92.41
2018-05-21T02:22:01.776Z,92.31
2018-05-21T02:23:01.776Z,92.41
2018-05-21T02:24:01.772Z,92.12
2018-05-21T02:25:01.763Z,92.88
2018-05-21T02:26:01.760Z,93.12
2018-05-21T02:27:01.779Z,93.07
2018-05-21T02:28:01.755Z,93.46
2018-05-21T02:29:01.751Z,93.17
2018-05-21T02:30:01.752Z,92.65
2018-05-21T02:31:01.741Z,92.65
2018-05-21T02:32:01.735Z,92.26
2018-05-21T02:33:01.735Z,91.78
2018-05-21T02:34:01.726Z,91.78
2018-05-21T02:35:01.726Z,92.07
2018-05-21T02:36:01.723Z,92.46
2018-05-21T02:37:01.717Z,92.74
2018-05-21T02:38:01.713Z,92.36
2018-05-21T02:39:01.704Z,93.12
2018-05-21T02:40:01.703Z,93.02
2018-05-21T02:41:01.702Z,92.93
2018-05-21T02:42:01.699Z,92.93
2018-05-21T02:43:01.687Z,93.12
2018-05-21T02:44:01.683Z,92.83
2018-05-21T02:45:01.680Z,92.83
2018-05-21T02:46:01.675Z,92.83
2018-05-21T02:47:01.675Z,93.22
2018-05-21T02:48:01.670Z,93.60
2018-05-21T02:49:01.667Z,93.60
2018-05-21T02:50:01.663Z,93.12
2018-05-21T02:51:01.656Z,92.83
2018-05-21T02:52:01.648Z,93.02
2018-05-21T02:53:01.643Z,93.22
2018-05-21T02:54:01.639Z,93.02
2018-05-21T02:55:01.639Z,93.60
2018-05-21T02:56:01.635Z,93.41
2018-05-21T02:57:01.626Z,93.41
2018-05-21T02:58:01.622Z,93.60
2018-05-21T02:59:01.621Z,93.51
2018-05-21T03:00:01.617Z,93.31
2018-05-21T03:01:01.615Z,93.41
2018-05-21T03:02:01.609Z,93.41
2018-05-21T03:03:01.599Z,93.51
2018-05-21T03:04:01.595Z,93.31
2018-05-21T03:05:01.596Z,93.51
2018-05-21T03:06:01.596Z,93.60
2018-05-21T03:07:01.589Z,93.88
2018-05-21T03:08:01.599Z,93.31
2018-05-21T03:09:01.585Z,93.60
2018-05-21T03:10:01.575Z,93.60
2018-05-21T03:11:01.565Z,93.51
2018-05-21T03:12:01.562Z,93.88
2018-05-21T03:13:01.568Z,93.79
2018-05-21T03:14:01.557Z,93.79
2018-05-21T03:15:01.546Z,93.12
2018-05-21T03:16:01.542Z,92.93
2018-05-21T03:17:01.539Z,93.88
2018-05-21T03:18:01.533Z,93.79
2018-05-21T03:19:01.532Z,93.41
2018-05-21T03:20:01.528Z,93.41
2018-05-21T03:21:01.525Z,93.41
2018-05-21T03:22:01.521Z,92.98
2018-05-21T03:23:01.515Z,93.55
2018-05-21T03:24:01.506Z,93.55
2018-05-21T03:25:01.504Z,93.60
2018-05-21T03:26:01.501Z,93.46
2018-05-21T03:27:01.498Z,93.31
2018-05-21T03:28:01.493Z,93.46
2018-05-21T03:29:01.483Z,93.36
2018-05-21T03:30:01.487Z,93.60
2018-05-21T03:31:01.579Z,93.55
2018-05-21T03:32:01.479Z,93.51
2018-05-21T03:33:01.473Z,93.31
2018-05-21T03:34:01.467Z,93.31
2018-05-21T03:35:01.455Z,93.98
2018-05-21T03:36:01.452Z,94.07
2018-05-21T03:37:01.448Z,93.31
2018-05-21T03:38:01.443Z,93.51
2018-05-21T03:39:01.442Z,93.22
2018-05-21T03:40:01.440Z,92.93
2018-05-21T03:41:01.432Z,93.41
2018-05-21T03:42:01.428Z,93.60
2018-05-21T03:43:01.419Z,92.93
2018-05-21T03:44:01.500Z,92.55
2018-05-21T03:45:01.414Z,92.55
2018-05-21T03:46:01.411Z,92.55
2018-05-21T03:47:01.400Z,92.55
2018-05-21T03:48:01.456Z,92.93
2018-05-21T03:49:01.414Z,92.07
2018-05-21T03:50:01.389Z,91.78
2018-05-21T03:51:01.387Z,92.36
2018-05-21T03:52:01.383Z,91.69
2018-05-21T03:53:01.382Z,92.17
2018-05-21T03:54:01.378Z,92.17
2018-05-21T03:55:01.365Z,92.26
2018-05-21T03:56:01.372Z,92.46
2018-05-21T03:57:01.451Z,92.36
2018-05-21T03:58:01.352Z,92.36
2018-05-21T03:59:01.351Z,92.26
2018-05-21T04:00:01.348Z,92.17
2018-05-21T04:01:01.338Z,92.36
2018-05-21T04:02:01.335Z,91.69
2018-05-21T04:03:01.338Z,91.98
2018-05-21T04:04:01.335Z,92.36
2018-05-21T04:05:01.327Z,93.02
2018-05-21T04:06:01.324Z,92.26
2018-05-21T04:07:01.313Z,92.46
2018-05-21T04:08:01.314Z,92.31
2018-05-21T04:09:01.305Z,91.93
2018-05-21T04:10:01.300Z,92.50
2018-05-21T04:11:01.299Z,92.60
2018-05-21T04:12:01.380Z,91.64
2018-05-21T04:13:01.292Z,91.16
2018-05-21T04:14:01.291Z,90.59
2018-05-21T04:15:01.288Z,90.69
2018-05-21T04:16:01.278Z,90.11
2018-05-21T04:17:01.275Z,89.83
2018-05-21T04:18:01.273Z,89.92
2018-05-21T04:19:01.262Z,89.30
2018-05-21T04:20:01.258Z,89.06
2018-05-21T04:21:01.254Z,89.20
2018-05-21T04:22:01.250Z,89.11
2018-05-21T04:23:01.250Z,88.63
2018-05-21T04:24:01.249Z,88.44
2018-05-21T04:25:01.242Z,88.54
2018-05-21T04:26:01.237Z,88.44
2018-05-21T04:27:01.234Z,88.34
2018-05-21T04:28:01.225Z,88.15
2018-05-21T04:29:01.221Z,87.68
2018-05-21T04:30:01.217Z,87.72
2018-05-21T04:31:01.217Z,87.91
2018-05-21T04:32:01.216Z,87.72
2018-05-21T04:33:01.211Z,87.43
2018-05-21T04:34:01.202Z,87.43
2018-05-21T04:35:01.203Z,87.62
2018-05-21T04:36:01.198Z,87.91
2018-05-21T04:37:01.198Z,87.05
2018-05-21T04:38:01.193Z,86.67
2018-05-21T04:39:01.183Z,86.14
2018-05-21T04:40:01.179Z,86.14
2018-05-21T04:41:01.177Z,86.43
2018-05-21T04:42:01.172Z,86.33
2018-05-21T04:43:01.174Z,86.04
2018-05-21T04:44:01.170Z,86.18
2018-05-21T04:45:01.170Z,86.08
2018-05-21T04:46:01.163Z,86.08
2018-05-21T04:47:01.155Z,85.71
2018-05-21T04:48:01.153Z,85.55
2018-05-21T04:49:01.155Z,84.41
2018-05-21T04:50:01.153Z,84.02
2018-05-21T04:51:01.143Z,83.87
2018-05-21T04:52:01.142Z,82.92
2018-05-21T04:53:01.142Z,83.30
2018-05-21T04:54:01.137Z,82.09
2018-05-21T04:55:01.140Z,82.19
2018-05-21T04:56:01.138Z,81.27
2018-05-21T04:57:01.138Z,80.03
2018-05-21T04:58:01.137Z,79.07
2018-05-21T04:59:01.132Z,78.53
2018-05-21T05:00:01.134Z,78.15
2018-05-21T05:01:01.130Z,76.90
2018-05-21T05:02:01.135Z,76.23
2018-05-21T05:03:01.132Z,75.95
2018-05-21T05:04:01.136Z,75.79
2018-05-21T05:05:01.128Z,74.96
2018-05-21T05:06:01.129Z,73.69
2018-05-21T05:07:01.133Z,71.52
2018-05-21T05:08:01.133Z,69.24
2018-05-21T05:09:01.137Z,67.00
2018-05-21T05:10:01.144Z,65.69
2018-05-21T05:11:01.128Z,65.24
2018-05-21T05:12:01.129Z,63.15
2018-05-21T05:13:01.131Z,60.77
2018-05-21T05:14:01.134Z,59.90
2018-05-21T05:15:01.142Z,59.58
2018-05-21T05:16:01.139Z,58.06
2018-05-21T05:17:01.141Z,56.25
2018-05-21T05:18:01.142Z,56.18
2018-05-21T05:19:01.143Z,54.27
2018-05-21T05:20:01.142Z,51.88
2018-05-21T05:21:01.169Z,51.52
2018-05-21T05:22:01.152Z,51.42
2018-05-21T05:23:01.150Z,50.43
2018-05-21T05:24:01.153Z,50.38
2018-05-21T05:25:01.157Z,50.93
2018-05-21T05:26:01.161Z,52.12
2018-05-21T05:27:01.168Z,52.34
2018-05-21T05:28:01.248Z,51.81
2018-05-21T05:29:01.176Z,51.35
2018-05-21T05:30:01.178Z,49.82
2018-05-21T05:31:01.177Z,48.66
2018-05-21T05:32:01.182Z,48.06
2018-05-21T05:33:01.186Z,47.77
2018-05-21T05:34:01.190Z,46.67
2018-05-21T05:35:01.198Z,46.73
2018-05-21T05:36:01.296Z,47.74
2018-05-21T05:37:01.207Z,49.17
2018-05-21T05:38:01.207Z,50.01
2018-05-21T05:39:01.215Z,51.46
2018-05-21T05:40:01.224Z,52.04
2018-05-21T05:41:01.225Z,52.29
2018-05-21T05:42:01.313Z,52.22
2018-05-21T05:43:01.230Z,51.44
2018-05-21T05:44:01.231Z,50.57
2018-05-21T05:45:01.243Z,50.48
2018-05-21T05:46:01.240Z,51.25
2018-05-21T05:47:01.252Z,51.32
2018-05-21T05:48:01.254Z,51.03
2018-05-21T05:49:01.258Z,51.64
2018-05-21T05:50:01.262Z,50.18
2018-05-21T05:51:01.260Z,49.92
2018-05-21T05:52:01.268Z,49.82
2018-05-21T05:53:01.278Z,50.24
2018-05-21T05:54:01.277Z,49.77
2018-05-21T05:55:01.282Z,49.58
2018-05-21T05:56:01.280Z,48.61
2018-05-21T05:57:01.285Z,48.25
2018-05-21T05:58:01.290Z,48.25
2018-05-21T05:59:01.300Z,47.94
2018-05-21T06:00:01.307Z,48.11
2018-05-21T06:01:01.309Z,48.01
2018-05-21T06:02:01.318Z,47.94
2018-05-21T06:03:01.315Z,48.08
2018-05-21T06:04:01.321Z,46.72
2018-05-21T06:05:01.321Z,46.14
2018-05-21T06:06:01.334Z,45.47
2018-05-21T06:07:01.335Z,45.85
2018-05-21T06:08:01.341Z,46.67
2018-05-21T06:09:01.341Z,47.45
2018-05-21T06:10:01.345Z,48.22
2018-05-21T06:11:01.355Z,48.22
2018-05-21T06:12:01.359Z,48.13
2018-05-21T06:13:01.372Z,47.84
2018-05-21T06:14:01.410Z,47.57
2018-05-21T06:15:01.370Z,46.92
2018-05-21T06:16:01.417Z,46.45
2018-05-21T06:17:01.380Z,45.80
2018-05-21T06:18:01.389Z,44.56
2018-05-21T06:19:01.396Z,43.92
2018-05-21T06:20:01.408Z,43.07
2018-05-21T06:21:01.409Z,42.50
2018-05-21T06:22:01.415Z,41.98
2018-05-21T06:23:01.447Z,41.90
2018-05-21T06:24:01.419Z,41.83
2018-05-21T06:25:01.437Z,40.85
2018-05-21T06:26:01.468Z,40.80
2018-05-21T06:27:01.438Z,40.55
2018-05-21T06:28:01.446Z,39.16
2018-05-21T06:29:01.452Z,39.08
2018-05-21T06:30:01.460Z,38.73
2018-05-21T06:31:01.471Z,38.26
2018-05-21T06:32:01.478Z,37.27
2018-05-21T06:33:01.488Z,38.12
2018-05-21T06:34:01.565Z,37.85
2018-05-21T06:35:01.496Z,38.43
2018-05-21T06:36:01.509Z,38.22
2018-05-21T06:37:01.513Z,38.49
2018-05-21T06:38:01.523Z,38.75
2018-05-21T06:39:01.539Z,39.12
2018-05-21T06:40:01.542Z,40.09
2018-05-21T06:41:01.577Z,40.08
2018-05-21T06:42:01.554Z,40.31
2018-05-21T06:43:01.566Z,41.16
2018-05-21T06:44:01.575Z,42.61
2018-05-21T06:45:01.580Z,43.10
2018-05-21T06:46:01.588Z,44.56
2018-05-21T06:47:01.589Z,45.92
2018-05-21T06:48:01.599Z,46.23
2018-05-21T06:49:01.604Z,44.41
2018-05-21T06:50:01.613Z,43.75
2018-05-21T06:51:01.621Z,43.65
2018-05-21T06:52:01.634Z,42.50
2018-05-21T06:53:01.638Z,41.69
2018-05-21T06:54:01.644Z,41.86
2018-05-21T06:55:01.645Z,41.80
2018-05-21T06:56:01.653Z,41.34
2018-05-21T06:57:01.663Z,40.56
2018-05-21T06:58:01.671Z,40.58
2018-05-21T06:59:01.673Z,40.52
2018-05-21T07:00:01.680Z,39.59
2018-05-21T07:01:01.689Z,38.55
2018-05-21T07:02:01.695Z,37.41
2018-05-21T07:03:01.707Z,36.77
2018-05-21T07:04:01.715Z,35.87
2018-05-21T07:05:01.724Z,35.60
2018-05-21T07:06:01.732Z,34.99
2018-05-21T07:07:01.735Z,34.29
2018-05-21T07:08:01.833Z,35.06
2018-05-21T07:09:01.754Z,34.80
2018-05-21T07:10:01.765Z,34.81
2018-05-21T07:11:01.780Z,34.44
2018-05-21T07:12:01.788Z,33.50
2018-05-21T07:13:01.790Z,33.31
2018-05-21T07:14:01.800Z,32.23
2018-05-21T07:15:01.815Z,32.23
2018-05-21T07:16:01.824Z,31.74
2018-05-21T07:17:01.834Z,31.44
2018-05-21T07:18:01.846Z,31.83
2018-05-21T07:19:01.850Z,31.45
2018-05-21T07:20:01.862Z,31.62
2018-05-21T07:21:01.879Z,31.35
2018-05-21T07:22:01.890Z,30.88
2018-05-21T07:23:01.896Z,30.87
2018-05-21T07:24:01.908Z,30.90
2018-05-21T07:25:01.926Z,30.93
2018-05-21T07:26:01.935Z,29.85
2018-05-21T07:27:01.949Z,29.44
2018-05-21T07:28:01.965Z,29.53
2018-05-21T07:29:01.970Z,29.75
2018-05-21T07:30:01.990Z,29.47
2018-05-21T07:31:02.003Z,28.85
2018-05-21T07:32:02.013Z,28.86
2018-05-21T07:33:02.028Z,29.25
2018-05-21T07:34:02.042Z,29.33
2018-05-21T07:35:02.051Z,29.33
2018-05-21T07:36:02.062Z,29.63
2018-05-21T07:37:02.076Z,30.14
2018-05-21T07:38:02.091Z,29.79
2018-05-21T07:39:02.107Z,28.65
2018-05-21T07:40:02.123Z,28.88
2018-05-21T07:41:02.135Z,30.20
2018-05-21T07:42:02.150Z,30.98
2018-05-21T07:43:02.158Z,31.67
2018-05-21T07:44:02.172Z,31.51
2018-05-21T07:45:02.191Z,31.00
2018-05-21T07:46:02.205Z,30.93
2018-05-21T07:47:02.219Z,30.74
2018-05-21T07:48:02.230Z,30.90
2018-05-21T07:49:02.242Z,30.72
2018-05-21T07:50:02.257Z,30.69
2018-05-21T07:51:02.274Z,31.77
2018-05-21T07:52:02.294Z,31.57
2018-05-21T07:53:02.302Z,32.11
2018-05-21T07:54:02.319Z,32.18
2018-05-21T07:55:02.325Z,33.72
2018-05-21T07:56:02.339Z,34.69
2018-05-21T07:57:02.353Z,34.91
2018-05-21T07:58:02.365Z,34.73
2018-05-21T07:59:02.383Z,34.77
2018-05-21T08:00:02.397Z,34.39
2018-05-21T08:01:02.407Z,33.40
2018-05-21T08:02:02.420Z,33.40
2018-05-21T08:03:02.436Z,33.17
2018-05-21T08:04:02.451Z,31.44
2018-05-21T08:05:02.463Z,31.35
2018-05-21T08:06:02.477Z,30.87
2018-05-21T08:07:02.487Z,30.29
2018-05-21T08:08:02.498Z,29.58
2018-05-21T08:09:02.512Z,30.32
2018-05-21T08:10:02.525Z,30.91
2018-05-21T08:11:02.543Z,31.21
2018-05-21T08:12:02.555Z,31.11
2018-05-21T08:13:02.569Z,30.83
2018-05-21T08:14:02.584Z,30.68
2018-05-21T08:15:02.597Z,30.04
2018-05-21T08:16:02.607Z,29.53
2018-05-21T08:17:02.626Z,29.27
2018-05-21T08:18:02.640Z,29.30
2018-05-21T08:19:02.649Z,28.33
2018-05-21T08:20:02.664Z,28.14
2018-05-21T08:21:02.679Z,27.68
2018-05-21T08:22:02.694Z,26.84
2018-05-21T08:23:02.718Z,26.35
2018-05-21T08:24:02.730Z,25.50
2018-05-21T08:25:02.744Z,26.20
2018-05-21T08:26:02.759Z,26.40
2018-05-21T08:27:02.810Z,26.68
2018-05-21T08:28:02.787Z,26.78
2018-05-21T08:29:02.809Z,27.08
2018-05-21T08:30:02.819Z,27.50
2018-05-21T08:31:02.840Z,26.41
2018-05-21T08:32:02.857Z,26.51
2018-05-21T08:33:02.873Z,25.74
2018-05-21T08:34:02.888Z,25.55
2018-05-21T08:35:02.907Z,25.07
2018-05-21T08:36:02.924Z,25.03
2018-05-21T08:37:02.940Z,25.38
2018-05-21T08:38:02.958Z,26.54
2018-05-21T08:39:02.971Z,27.43
2018-05-21T08:40:02.990Z,27.61
2018-05-21T08:41:03.003Z,27.53
2018-05-21T08:42:03.021Z,27.84
2018-05-21T08:43:03.042Z,27.70
2018-05-21T08:44:03.059Z,27.98
2018-05-21T08:45:03.078Z,28.81
2018-05-21T08:46:03.096Z,28.54
2018-05-21T08:47:03.107Z,27.45
2018-05-21T08:48:03.125Z,26.67
2018-05-21T08:49:03.147Z,26.75
2018-05-21T08:50:03.166Z,27.14
2018-05-21T08:51:03.177Z,27.94
2018-05-21T08:52:03.197Z,27.96
2018-05-21T08:53:03.213Z,27.22
2018-05-21T08:54:03.231Z,26.55
2018-05-21T08:55:03.283Z,25.65
2018-05-21T08:56:03.269Z,25.63
2018-05-21T08:57:03.294Z,25.35
2018-05-21T08:58:03.307Z,25.38
2018-05-21T08:59:03.318Z,25.59
2018-05-21T09:00:03.337Z,26.81
2018-05-21T09:01:03.356Z,28.19
2018-05-21T09:02:03.375Z,27.82
2018-05-21T09:03:03.396Z,27.27
2018-05-21T09:04:03.420Z,27.74
2018-05-21T09:05:03.427Z,27.82
2018-05-21T09:06:03.445Z,28.11
2018-05-21T09:07:03.472Z,28.64
2018-05-21T09:08:03.487Z,28.44
2018-05-21T09:09:03.505Z,28.45
2018-05-21T09:10:03.569Z,28.59
2018-05-21T09:11:03.534Z,27.69
2018-05-21T09:12:03.552Z,27.71
2018-05-21T09:13:03.571Z,27.80
2018-05-21T09:14:03.589Z,27.78
2018-05-21T09:15:03.614Z,27.16
2018-05-21T09:16:03.627Z,26.79
2018-05-21T09:17:03.647Z,26.32
2018-05-21T09:18:03.663Z,27.17
2018-05-21T09:19:03.680Z,27.94
2018-05-21T09:20:03.694Z,28.12
2018-05-21T09:21:03.718Z,28.22
2018-05-21T09:22:03.736Z,28.82
2018-05-21T09:23:03.747Z,29.38
2018-05-21T09:24:03.764Z,29.58
2018-05-21T09:25:03.781Z,29.80
2018-05-21T09:26:03.808Z,29.24
2018-05-21T09:27:03.821Z,28.78
2018-05-21T09:28:03.837Z,28.54
2018-05-21T09:29:03.856Z,26.65
2018-05-21T09:30:03.873Z,25.79
2018-05-21T09:31:03.884Z,25.20
2018-05-21T09:32:03.904Z,26.04
2018-05-21T09:33:03.921Z,25.72
2018-05-21T09:34:03.937Z,26.29
2018-05-21T09:35:03.960Z,26.32
2018-05-21T09:36:03.975Z,25.76
2018-05-21T09:37:03.989Z,25.40
2018-05-21T09:38:04.006Z,26.58
2018-05-21T09:39:04.027Z,26.75
2018-05-21T09:40:04.045Z,27.83
2018-05-21T09:41:04.070Z,28.89
2018-05-21T09:42:04.112Z,29.93
2018-05-21T09:43:04.091Z,29.30
2018-05-21T09:44:04.107Z,28.47
2018-05-21T09:45:04.124Z,28.77
2018-05-21T09:46:04.140Z,28.86
2018-05-21T09:47:04.160Z,29.24
2018-05-21T09:48:04.178Z,29.17
2018-05-21T09:49:04.192Z,29.06
2018-05-21T09:50:04.208Z,29.75
2018-05-21T09:51:04.222Z,29.06
2018-05-21T09:52:04.235Z,28.57
2018-05-21T09:53:04.256Z,28.49
2018-05-21T09:54:04.272Z,28.18
2018-05-21T09:55:04.282Z,28.45
2018-05-21T09:56:04.299Z,28.85
2018-05-21T09:57:04.314Z,29.06
2018-05-21T09:58:04.329Z,28.97
2018-05-21T09:59:04.350Z,28.77
2018-05-21T10:00:04.370Z,28.39
2018-05-21T10:01:04.381Z,28.44
2018-05-21T10:02:04.396Z,27.63
2018-05-21T10:03:04.407Z,28.08
2018-05-21T10:04:04.422Z,28.81
2018-05-21T10:05:04.436Z,29.60
2018-05-21T10:06:04.452Z,29.60
2018-05-21T10:07:04.471Z,29.91
2018-05-21T10:08:04.487Z,29.94
2018-05-21T10:09:04.497Z,29.79
2018-05-21T10:10:04.512Z,29.41
2018-05-21T10:11:04.530Z,28.54
2018-05-21T10:12:04.628Z,28.26
2018-05-21T10:13:04.561Z,28.20
2018-05-21T10:14:04.578Z,27.81
2018-05-21T10:15:04.585Z,28.02
2018-05-21T10:16:04.603Z,27.37
2018-05-21T10:17:04.617Z,28.77
2018-05-21T10:18:04.632Z,29.38
2018-05-21T10:19:04.653Z,29.80
2018-05-21T10:20:04.668Z,29.70
2018-05-21T10:21:04.684Z,29.31
2018-05-21T10:22:04.779Z,29.83
2018-05-21T10:23:04.708Z,29.38
2018-05-21T10:24:04.724Z,28.61
2018-05-21T10:25:04.743Z,28.44
2018-05-21T10:26:04.776Z,27.97
2018-05-21T10:27:04.768Z,26.90
2018-05-21T10:28:04.785Z,26.29
2018-05-21T10:29:04.801Z,26.79
2018-05-21T10:30:04.818Z,25.87
2018-05-21T10:31:04.837Z,27.39
2018-05-21T10:32:04.854Z,28.11
2018-05-21T10:33:04.869Z,26.52
2018-05-21T10:34:04.890Z,26.28
2018-05-21T10:35:04.898Z,26.45
2018-05-21T10:36:04.913Z,26.51
2018-05-21T10:37:05.011Z,26.72
2018-05-21T10:38:04.946Z,27.03
2018-05-21T10:39:04.967Z,26.87
2018-05-21T10:40:04.983Z,25.32
2018-05-21T10:41:04.997Z,25.70
2018-05-21T10:42:05.010Z,25.59
2018-05-21T10:43:05.033Z,25.50
2018-05-21T10:44:05.046Z,25.37
2018-05-21T10:45:05.062Z,26.37
2018-05-21T10:46:05.081Z,26.98
2018-05-21T10:47:05.089Z,25.31
2018-05-21T10:48:05.104Z,24.51
2018-05-21T10:49:05.123Z,24.73
2018-05-21T10:50:05.136Z,24.25
2018-05-21T10:51:05.158Z,23.95
2018-05-21T10:52:05.172Z,24.84
2018-05-21T10:53:05.189Z,24.57
2018-05-21T10:54:05.205Z,24.10
2018-05-21T10:55:05.214Z,22.82
2018-05-21T10:56:05.233Z,22.69
2018-05-21T10:57:05.251Z,22.78
2018-05-21T10:58:05.268Z,23.18
2018-05-21T10:59:05.280Z,23.00
2018-05-21T11:00:05.294Z,22.88
2018-05-21T11:01:05.312Z,22.88
2018-05-21T11:02:05.327Z,23.53
2018-05-21T11:03:05.348Z,24.22
2018-05-21T11:04:05.363Z,24.51
2018-05-21T11:05:05.380Z,24.96
2018-05-21T11:06:05.401Z,25.54
2018-05-21T11:07:05.408Z,26.00
2018-05-21T11:08:05.425Z,26.70
2018-05-21T11:09:05.440Z,26.49
2018-05-21T11:10:05.456Z,27.17
2018-05-21T11:11:05.482Z,26.88
2018-05-21T11:12:05.532Z,27.10
2018-05-21T11:13:05.501Z,26.90
2018-05-21T11:14:05.517Z,26.60
2018-05-21T11:15:05.537Z,26.20
2018-05-21T11:16:05.559Z,26.78
2018-05-21T11:17:05.565Z,27.38
2018-05-21T11:18:05.580Z,27.16
2018-05-21T11:19:05.593Z,27.80
2018-05-21T11:20:05.604Z,27.68
2018-05-21T11:21:05.619Z,28.26
2018-05-21T11:22:05.631Z,28.45
2018-05-21T11:23:05.649Z,28.75
2018-05-21T11:24:05.661Z,29.02
2018-05-21T11:25:05.676Z,29.30
2018-05-21T11:26:05.691Z,29.19
2018-05-21T11:27:05.693Z,29.96
2018-05-21T11:28:05.708Z,30.44
2018-05-21T11:29:05.721Z,30.54
2018-05-21T11:30:05.733Z,30.82
2018-05-21T11:31:05.735Z,31.30
2018-05-21T11:32:05.744Z,31.60
2018-05-21T11:33:05.755Z,31.40
2018-05-21T11:34:05.764Z,31.88
2018-05-21T11:35:05.776Z,31.70
2018-05-21T11:36:05.785Z,31.60
2018-05-21T11:37:05.801Z,31.40
2018-05-21T11:38:05.801Z,31.87
2018-05-21T11:39:05.804Z,31.70
2018-05-21T11:40:05.820Z,31.48
2018-05-21T11:41:05.820Z,31.87
2018-05-21T11:42:05.828Z,31.60
2018-05-21T11:43:05.839Z,32.17
2018-05-21T11:44:05.845Z,32.57
2018-05-21T11:45:05.848Z,31.97
2018-05-21T11:46:05.856Z,32.76
2018-05-21T11:47:05.866Z,32.57
2018-05-21T11:48:05.873Z,32.28
2018-05-21T11:49:05.878Z,32.28
2018-05-21T11:50:05.886Z,32.29
2018-05-21T11:51:05.887Z,31.32
2018-05-21T11:52:05.892Z,32.00
2018-05-21T11:53:05.900Z,31.88
2018-05-21T11:54:05.906Z,31.79
2018-05-21T11:55:05.917Z,32.37
2018-05-21T11:56:05.922Z,31.90
2018-05-21T11:57:05.928Z,31.90
2018-05-21T11:58:05.935Z,31.50
2018-05-21T11:59:05.935Z,31.21
2018-05-21T12:00:05.941Z,31.79
2018-05-21T12:01:05.955Z,31.60
2018-05-21T12:02:06.058Z,31.60
2018-05-21T12:03:05.958Z,31.77
2018-05-21T12:04:05.964Z,31.87
2018-05-21T12:05:05.979Z,31.76
2018-05-21T12:06:05.975Z,31.66
2018-05-21T12:07:05.984Z,32.15
2018-05-21T12:08:05.993Z,32.45
2018-05-21T12:09:05.995Z,32.45
2018-05-21T12:10:06.001Z,32.08
2018-05-21T12:11:06.001Z,32.10
2018-05-21T12:12:06.013Z,32.10
2018-05-21T12:13:06.016Z,31.61
2018-05-21T12:14:06.018Z,32.59
2018-05-21T12:15:06.026Z,32.20
2018-05-21T12:16:06.033Z,31.88
2018-05-21T12:17:06.033Z,31.30
2018-05-21T12:18:06.038Z,31.87
2018-05-21T12:19:06.048Z,31.77
2018-05-21T12:20:06.053Z,32.57
2018-05-21T12:21:06.059Z,32.08
2018-05-21T12:22:06.063Z,32.00
2018-05-21T12:23:06.063Z,31.40
2018-05-21T12:24:06.071Z,31.51
2018-05-21T12:25:06.074Z,31.61
2018-05-21T12:26:06.079Z,32.00
2018-05-21T12:27:06.089Z,31.50
2018-05-21T12:28:06.097Z,31.87
2018-05-21T12:29:06.099Z,31.00
2018-05-21T12:30:06.109Z,32.17
2018-05-21T12:31:06.104Z,32.26
2018-05-21T12:32:06.109Z,32.45
2018-05-21T12:33:06.123Z,32.26
2018-05-21T12:34:06.125Z,32.35
2018-05-21T12:35:06.126Z,32.44
2018-05-21T12:36:06.130Z,32.84
2018-05-21T12:37:06.140Z,32.65
2018-05-21T12:38:06.217Z,32.45
2018-05-21T12:39:06.149Z,32.47
2018-05-21T12:40:06.153Z,32.08
2018-05-21T12:41:06.159Z,31.50
2018-05-21T12:42:06.165Z,31.79
2018-05-21T12:43:06.166Z,31.58
2018-05-21T12:44:06.169Z,31.98
2018-05-21T12:45:06.174Z,31.29
2018-05-21T12:46:06.183Z,31.58
2018-05-21T12:47:06.187Z,31.21
2018-05-21T12:48:06.194Z,31.30
2018-05-21T12:49:06.193Z,31.98
2018-05-21T12:50:06.198Z,32.08
2018-05-21T12:51:06.207Z,32.18
2018-05-21T12:52:06.212Z,31.70